Time;durP1;ratioP1;P1;durP2;ratioP2;P2;SDS_P1;SDS_P2;PMS_P1;PMS_P2;Temp;Humidity;BMP_temperature;BMP_pressure;BME280_temperature;BME280_humidity;BME280_pressure;Samples;Min_cycle;Max_cycle;Signal;HPM_P1;HPM_P2
2022/05/06 00:00:55;;;;;;;16.58;9.80;;;;;;;;;;5014179;28;20077;-64
2022/05/06 00:03:20;;;;;;;15.32;8.80;;;;;;;;;;5014096;28;20120;-63
2022/05/06 00:05:46;;;;;;;19.00;9.38;;;;;;;;;;5014247;28;20527;-64
2022/05/06 00:08:13;;;;;;;17.85;9.32;;;;;;;;;;5014287;28;20026;-64
2022/05/06 00:10:39;;;;;;;17.13;9.55;;;;;;;;;;5014337;28;20060;-63
2022/05/06 00:13:06;;;;;;;19.85;9.93;;;;;;;;;;5014248;28;20062;-63
2022/05/06 00:15:31;;;;;;;18.00;9.90;;;;;;;;;;5014278;28;20026;-63
2022/05/06 00:17:57;;;;;;;17.40;9.73;;;;;;;;;;5013989;28;20033;-64
2022/05/06 00:20:22;;;;;;;16.70;9.82;;;;;;;;;;5014161;28;20033;-63
2022/05/06 00:22:47;;;;;;;18.52;9.73;;;;;;;;;;5013976;28;20022;-64
2022/05/06 00:25:13;;;;;;;20.58;9.73;;;;;;;;;;5014114;28;20502;-64
2022/05/06 00:27:41;;;;;;;19.13;11.23;;;;;;;;;;5013858;28;20036;-62
2022/05/06 00:30:07;;;;;;;20.60;10.65;;;;;;;;;;5013890;28;20026;-63
2022/05/06 00:32:33;;;;;;;17.27;10.63;;;;;;;;;;5013727;28;20048;-64
2022/05/06 00:34:58;;;;;;;19.13;10.65;;;;;;;;;;5013859;28;20097;-64
2022/05/06 00:37:24;;;;;;;18.83;10.07;;;;;;;;;;5013902;28;20026;-63
2022/05/06 00:39:50;;;;;;;16.50;9.93;;;;;;;;;;5013820;28;20030;-63
2022/05/06 00:42:16;;;;;;;20.45;9.73;;;;;;;;;;5013704;28;20527;-63
2022/05/06 00:44:42;;;;;;;19.98;10.10;;;;;;;;;;5013664;28;20076;-64
2022/05/06 00:47:08;;;;;;;14.52;8.60;;;;;;;;;;5013286;28;20468;-63
2022/05/06 00:49:35;;;;;;;16.40;8.45;;;;;;;;;;5013560;28;20041;-64
2022/05/06 00:52:03;;;;;;;17.10;8.90;;;;;;;;;;5013646;28;20033;-63
2022/05/06 00:54:31;;;;;;;14.93;8.38;;;;;;;;;;5013457;28;20105;-63
2022/05/06 00:56:58;;;;;;;16.25;7.75;;;;;;;;;;5013473;28;20030;-61
2022/05/06 00:59:23;;;;;;;13.88;7.45;;;;;;;;;;5012965;28;20022;-63
2022/05/06 01:01:49;;;;;;;15.32;8.38;;;;;;;;;;5012821;28;20384;-61
2022/05/06 01:04:18;;;;;;;14.77;8.30;;;;;;;;;;5013560;28;20081;-63
2022/05/06 01:06:45;;;;;;;17.40;8.07;;;;;;;;;;5013412;28;20025;-62
2022/05/06 01:09:18;;;;;;;14.65;8.05;;;;;;;;;;5013397;28;20115;-64
2022/05/06 01:11:44;;;;;;;12.05;8.02;;;;;;;;;;5013164;28;20022;-63
2022/05/06 01:14:11;;;;;;;14.38;8.13;;;;;;;;;;5012882;28;20035;-63
2022/05/06 01:16:37;;;;;;;15.48;7.88;;;;;;;;;;5013192;28;20088;-63
2022/05/06 01:19:04;;;;;;;13.48;8.10;;;;;;;;;;5013101;28;20021;-64
2022/05/06 01:21:36;;;;;;;14.18;8.02;;;;;;;;;;5013286;28;20026;-64
2022/05/06 01:24:02;;;;;;;15.60;8.35;;;;;;;;;;5013058;28;20074;-63
2022/05/06 01:27:00;;;;;;;13.75;7.70;;;;;;;;;;5012973;28;20033;-63
2022/05/06 01:29:27;;;;;;;13.85;7.18;;;;;;;;;;4990884;28;20070;-63
2022/05/06 01:31:53;;;;;;;13.25;7.75;;;;;;;;;;4991319;28;20653;-64
2022/05/06 01:34:21;;;;;;;16.20;7.85;;;;;;;;;;4991237;28;20117;-63
2022/05/06 01:36:49;;;;;;;12.30;6.70;;;;;;;;;;4991222;28;20031;-63
2022/05/06 01:39:18;;;;;;;11.63;6.35;;;;;;;;;;4991138;28;20037;-64
2022/05/06 01:41:45;;;;;;;11.25;6.50;;;;;;;;;;4991373;28;20038;-64
2022/05/06 01:44:16;;;;;;;13.30;6.57;;;;;;;;;;4990976;28;20515;-62
2022/05/06 01:46:42;;;;;;;10.32;5.78;;;;;;;;;;4991184;28;20157;-63
2022/05/06 01:49:10;;;;;;;13.77;6.25;;;;;;;;;;4991284;28;20106;-63
2022/05/06 01:51:38;;;;;;;11.27;6.65;;;;;;;;;;4991222;28;20053;-63
2022/05/06 01:54:05;;;;;;;9.57;6.35;;;;;;;;;;4991242;28;20034;-64
2022/05/06 01:56:30;;;;;;;12.98;7.03;;;;;;;;;;4991071;28;20031;-64
2022/05/06 01:58:56;;;;;;;11.80;6.40;;;;;;;;;;4990749;28;20121;-63
2022/05/06 02:01:21;;;;;;;10.75;6.25;;;;;;;;;;4990803;28;20460;-64
2022/05/06 02:06:31;;;;;;;9.45;5.70;;;;;;;;;;5005633;28;20044;-64
2022/05/06 02:08:56;;;;;;;10.93;6.05;;;;;;;;;;5012532;28;20101;-63
2022/05/06 02:11:22;;;;;;;11.77;6.18;;;;;;;;;;5014521;28;20068;-62
2022/05/06 02:13:48;;;;;;;12.05;6.13;;;;;;;;;;5016183;28;20032;-64
2022/05/06 02:16:13;;;;;;;12.00;6.43;;;;;;;;;;5016546;28;20030;-64
2022/05/06 02:18:39;;;;;;;8.57;6.20;;;;;;;;;;5016291;28;20104;-63
2022/05/06 02:21:04;;;;;;;14.23;6.82;;;;;;;;;;5016356;28;20108;-63
2022/05/06 02:23:30;;;;;;;12.80;6.63;;;;;;;;;;5016132;28;20026;-63
2022/05/06 02:25:56;;;;;;;15.10;6.57;;;;;;;;;;5016165;28;20026;-61
2022/05/06 02:28:21;;;;;;;11.23;6.45;;;;;;;;;;5015944;28;20026;-63
2022/05/06 02:33:31;;;;;;;13.70;6.80;;;;;;;;;;5016267;28;20111;-63
2022/05/06 02:35:58;;;;;;;38.00;13.38;;;;;;;;;;5016113;28;20464;-63
2022/05/06 02:38:25;;;;;;;48.60;16.08;;;;;;;;;;5016001;28;20026;-64
2022/05/06 02:40:51;;;;;;;37.10;13.65;;;;;;;;;;5015888;28;20032;-63
2022/05/06 02:43:17;;;;;;;42.05;16.63;;;;;;;;;;5015749;28;20030;-64
2022/05/06 02:45:43;;;;;;;30.98;11.40;;;;;;;;;;5015891;28;20030;-64
2022/05/06 02:48:09;;;;;;;22.17;10.43;;;;;;;;;;5015676;28;20041;-63
2022/05/06 02:50:34;;;;;;;24.05;10.10;;;;;;;;;;5015802;28;20030;-64
2022/05/06 02:53:01;;;;;;;18.75;9.07;;;;;;;;;;5015666;28;20034;-62
2022/05/06 02:55:26;;;;;;;28.88;9.80;;;;;;;;;;5015605;28;20104;-61
2022/05/06 02:57:52;;;;;;;20.25;7.82;;;;;;;;;;5015744;28;20088;-62
2022/05/06 03:00:18;;;;;;;17.13;8.75;;;;;;;;;;5015533;28;20077;-63
2022/05/06 03:02:44;;;;;;;20.63;8.95;;;;;;;;;;5015370;28;20041;-63
2022/05/06 03:05:10;;;;;;;17.85;9.05;;;;;;;;;;5015294;28;20033;-64
2022/05/06 03:07:36;;;;;;;15.30;8.23;;;;;;;;;;5015254;28;20034;-63
2022/05/06 03:10:03;;;;;;;18.65;9.10;;;;;;;;;;5015267;28;20471;-63
2022/05/06 03:12:30;;;;;;;15.52;8.60;;;;;;;;;;5015296;28;20030;-63
2022/05/06 03:15:03;;;;;;;18.92;8.60;;;;;;;;;;5015001;28;20059;-63
2022/05/06 03:17:28;;;;;;;17.77;9.68;;;;;;;;;;5015146;28;20030;-63
2022/05/06 03:19:54;;;;;;;16.77;9.23;;;;;;;;;;5015182;28;20024;-63
2022/05/06 03:22:19;;;;;;;20.88;9.32;;;;;;;;;;5014632;28;20081;-64
2022/05/06 03:24:45;;;;;;;16.42;9.55;;;;;;;;;;5014801;28;20018;-64
2022/05/06 03:29:55;;;;;;;18.05;8.90;;;;;;;;;;5015174;28;20237;-64
2022/05/06 03:32:22;;;;;;;16.75;9.52;;;;;;;;;;5015032;28;20109;-62
2022/05/06 03:34:49;;;;;;;23.05;9.85;;;;;;;;;;5015026;28;20030;-64
2022/05/06 03:37:14;;;;;;;17.73;9.32;;;;;;;;;;5014864;28;20399;-64
2022/05/06 03:39:40;;;;;;;15.20;8.60;;;;;;;;;;5014729;28;20025;-64
2022/05/06 03:42:06;;;;;;;18.10;9.30;;;;;;;;;;5014888;28;20539;-63
2022/05/06 03:44:31;;;;;;;16.88;9.45;;;;;;;;;;5014866;28;20037;-64
2022/05/06 03:46:57;;;;;;;15.98;9.13;;;;;;;;;;5014698;28;20029;-64
2022/05/06 03:49:22;;;;;;;15.43;9.90;;;;;;;;;;5014782;28;20033;-63
2022/05/06 03:51:48;;;;;;;20.60;9.90;;;;;;;;;;5014751;28;20386;-64
2022/05/06 03:54:13;;;;;;;15.45;10.15;;;;;;;;;;5014514;28;20018;-64
2022/05/06 03:56:39;;;;;;;20.35;10.02;;;;;;;;;;5014567;28;20056;-64
2022/05/06 03:59:05;;;;;;;22.38;9.45;;;;;;;;;;5014466;28;20069;-62
2022/05/06 04:01:31;;;;;;;18.48;10.30;;;;;;;;;;5014195;28;20049;-63
2022/05/06 04:03:57;;;;;;;26.15;11.57;;;;;;;;;;5014626;28;20080;-64
2022/05/06 04:06:22;;;;;;;18.88;10.32;;;;;;;;;;5014437;28;20034;-64
2022/05/06 04:08:48;;;;;;;18.60;10.02;;;;;;;;;;5014169;28;20068;-63
2022/05/06 04:11:13;;;;;;;19.00;9.70;;;;;;;;;;5014456;28;20037;-65
2022/05/06 04:13:39;;;;;;;20.02;9.63;;;;;;;;;;5014308;28;20156;-64
2022/05/06 04:16:07;;;;;;;19.73;9.13;;;;;;;;;;5014467;28;20563;-64
2022/05/06 04:18:33;;;;;;;17.15;9.10;;;;;;;;;;5014166;28;20414;-64
2022/05/06 04:23:42;;;;;;;20.90;10.40;;;;;;;;;;5014189;28;20080;-64
2022/05/06 04:26:13;;;;;;;15.70;9.63;;;;;;;;;;5014020;28;20034;-64
2022/05/06 04:28:39;;;;;;;16.48;9.57;;;;;;;;;;5013885;28;20030;-63
2022/05/06 04:31:06;;;;;;;17.65;10.23;;;;;;;;;;5013848;28;20050;-63
2022/05/06 04:33:32;;;;;;;20.63;9.40;;;;;;;;;;5013145;28;20025;-64
2022/05/06 04:35:59;;;;;;;20.67;10.48;;;;;;;;;;5013947;28;20081;-64
2022/05/06 04:38:26;;;;;;;18.00;10.50;;;;;;;;;;5013505;28;20072;-64
2022/05/06 04:40:54;;;;;;;19.85;11.43;;;;;;;;;;5013812;28;20030;-64
2022/05/06 04:43:20;;;;;;;26.33;12.40;;;;;;;;;;5013876;28;20026;-64
2022/05/06 04:45:47;;;;;;;19.48;11.80;;;;;;;;;;5013749;28;20049;-65
2022/05/06 04:48:13;;;;;;;20.90;11.98;;;;;;;;;;5013545;28;20057;-64
2022/05/06 04:50:40;;;;;;;19.27;11.15;;;;;;;;;;5013731;28;20053;-65
2022/05/06 04:53:07;;;;;;;21.63;12.48;;;;;;;;;;5013373;28;20065;-63
2022/05/06 04:55:41;;;;;;;18.85;12.05;;;;;;;;;;5013626;28;20456;-65
2022/05/06 04:58:07;;;;;;;21.90;12.90;;;;;;;;;;5013670;28;20026;-65
2022/05/06 05:00:33;;;;;;;20.00;12.88;;;;;;;;;;5013359;28;20046;-64
2022/05/06 05:03:00;;;;;;;20.80;12.48;;;;;;;;;;5013102;28;20095;-65
2022/05/06 05:05:25;;;;;;;20.85;12.23;;;;;;;;;;5013486;28;20026;-64
2022/05/06 05:07:51;;;;;;;19.15;11.70;;;;;;;;;;5013016;28;20037;-65
2022/05/06 05:10:17;;;;;;;16.80;10.55;;;;;;;;;;5013295;28;20033;-65
2022/05/06 05:12:43;;;;;;;17.15;10.98;;;;;;;;;;5013178;28;20058;-65
2022/05/06 05:15:10;;;;;;;17.42;10.77;;;;;;;;;;5013167;28;20026;-65
2022/05/06 05:17:35;;;;;;;17.20;10.52;;;;;;;;;;5013250;28;20364;-64
2022/05/06 05:20:01;;;;;;;14.73;9.75;;;;;;;;;;5013332;28;20030;-65
2022/05/06 05:22:28;;;;;;;18.23;11.07;;;;;;;;;;5012791;28;20026;-64
2022/05/06 05:24:54;;;;;;;19.23;10.98;;;;;;;;;;5013041;28;20088;-64
2022/05/06 05:27:19;;;;;;;18.02;10.45;;;;;;;;;;5012919;28;20431;-64
2022/05/06 05:29:45;;;;;;;23.95;10.40;;;;;;;;;;5013023;28;20109;-64
2022/05/06 05:32:11;;;;;;;18.17;11.50;;;;;;;;;;5013004;28;20129;-63
2022/05/06 05:34:36;;;;;;;17.80;11.10;;;;;;;;;;5013094;28;20485;-64
2022/05/06 05:37:02;;;;;;;15.10;10.43;;;;;;;;;;5012725;28;20025;-64
2022/05/06 05:39:28;;;;;;;16.88;10.32;;;;;;;;;;5013011;28;20422;-65
2022/05/06 05:41:54;;;;;;;14.48;11.18;;;;;;;;;;5012874;28;20030;-65
2022/05/06 05:49:48;;;;;;;14.90;9.70;;;;;;;;;;5017108;28;20060;-64
2022/05/06 05:52:14;;;;;;;18.55;10.57;;;;;;;;;;5017072;28;20018;-63
2022/05/06 05:54:40;;;;;;;17.85;10.93;;;;;;;;;;5016804;28;20088;-65
2022/05/06 05:57:06;;;;;;;15.80;9.70;;;;;;;;;;5016684;28;20044;-63
2022/05/06 05:59:33;;;;;;;15.77;9.88;;;;;;;;;;5016685;28;20040;-64
2022/05/06 06:02:01;;;;;;;15.95;10.10;;;;;;;;;;5016529;28;20038;-63
2022/05/06 06:04:27;;;;;;;16.35;9.15;;;;;;;;;;5016463;28;20083;-65
2022/05/06 06:06:52;;;;;;;17.40;9.07;;;;;;;;;;5016486;28;20117;-64
2022/05/06 06:09:21;;;;;;;18.13;10.65;;;;;;;;;;5016627;28;20356;-64
2022/05/06 06:11:47;;;;;;;17.98;9.60;;;;;;;;;;5016477;28;20036;-65
2022/05/06 06:14:13;;;;;;;17.05;9.55;;;;;;;;;;5015186;28;20460;-64
2022/05/06 06:16:38;;;;;;;17.23;9.23;;;;;;;;;;5016577;28;20026;-64
2022/05/06 06:19:04;;;;;;;17.00;9.23;;;;;;;;;;5015980;28;20057;-64
2022/05/06 06:21:29;;;;;;;20.00;9.13;;;;;;;;;;5016267;28;20037;-65
2022/05/06 06:23:55;;;;;;;15.15;9.02;;;;;;;;;;5016235;28;20072;-64
2022/05/06 06:26:20;;;;;;;16.20;8.82;;;;;;;;;;5016185;28;20026;-64
2022/05/06 06:28:46;;;;;;;13.02;8.90;;;;;;;;;;5016093;28;20018;-63
2022/05/06 06:31:12;;;;;;;13.13;8.50;;;;;;;;;;5016198;28;20026;-64
2022/05/06 06:33:38;;;;;;;25.88;10.00;;;;;;;;;;5015780;28;20026;-64
2022/05/06 06:36:05;;;;;;;16.15;9.20;;;;;;;;;;5016242;28;20054;-64
2022/05/06 06:38:31;;;;;;;18.73;9.57;;;;;;;;;;5016055;28;20026;-64
2022/05/06 06:40:56;;;;;;;13.82;9.63;;;;;;;;;;5015951;28;20030;-64
2022/05/06 06:43:22;;;;;;;14.10;9.30;;;;;;;;;;5015753;28;20045;-63
2022/05/06 06:45:47;;;;;;;18.38;8.85;;;;;;;;;;5015869;28;20037;-64
2022/05/06 06:48:13;;;;;;;20.67;9.95;;;;;;;;;;5015412;28;20506;-63
2022/05/06 06:50:41;;;;;;;15.68;8.77;;;;;;;;;;5015724;28;20030;-64
2022/05/06 06:53:07;;;;;;;15.38;9.73;;;;;;;;;;5015595;28;20045;-63
2022/05/06 06:55:33;;;;;;;21.42;9.07;;;;;;;;;;5015684;28;20491;-65
2022/05/06 06:57:58;;;;;;;18.13;8.93;;;;;;;;;;5014808;28;20104;-64
2022/05/06 07:00:24;;;;;;;17.63;8.85;;;;;;;;;;5015606;28;20046;-63
2022/05/06 07:02:49;;;;;;;19.77;9.00;;;;;;;;;;5015230;28;20490;-65
2022/05/06 07:05:15;;;;;;;20.33;9.07;;;;;;;;;;5015576;28;20108;-64
2022/05/06 07:13:09;;;;;;;20.52;8.13;;;;;;;;;;5015478;28;20040;-65
2022/05/06 07:15:34;;;;;;;15.32;8.48;;;;;;;;;;5015417;28;20026;-64
2022/05/06 07:18:00;;;;;;;17.85;8.68;;;;;;;;;;5015181;28;20026;-64
2022/05/06 07:20:25;;;;;;;18.02;8.10;;;;;;;;;;5015360;28;20022;-65
2022/05/06 07:22:51;;;;;;;19.13;7.63;;;;;;;;;;5015046;28;20116;-64
2022/05/06 07:25:16;;;;;;;20.08;8.98;;;;;;;;;;5015221;28;20088;-64
2022/05/06 07:27:43;;;;;;;23.13;8.20;;;;;;;;;;5015058;28;20044;-65
2022/05/06 07:30:09;;;;;;;14.95;7.60;;;;;;;;;;5015197;28;20026;-63
2022/05/06 07:32:37;;;;;;;17.35;8.15;;;;;;;;;;5014859;28;20044;-65
2022/05/06 07:35:02;;;;;;;13.55;8.15;;;;;;;;;;5015105;28;20083;-64
2022/05/06 07:37:33;;;;;;;18.40;8.02;;;;;;;;;;5014746;28;20423;-63
2022/05/06 07:40:03;;;;;;;12.32;7.97;;;;;;;;;;5015002;28;20371;-63
2022/05/06 07:42:31;;;;;;;;;;;;;;;;;;5015171;28;20053;-64
2022/05/06 07:45:00;;;;;;;15.73;8.38;;;;;;;;;;5014679;28;19921;-64
2022/05/06 07:47:26;;;;;;;11.80;8.02;;;;;;;;;;5012859;28;20037;-63
2022/05/06 07:49:52;;;;;;;20.40;8.00;;;;;;;;;;5014823;28;20487;-64
2022/05/06 07:52:18;;;;;;;13.50;8.43;;;;;;;;;;5014639;28;20030;-65
2022/05/06 07:54:43;;;;;;;17.02;7.90;;;;;;;;;;5014688;28;20033;-64
2022/05/06 07:57:09;;;;;;;12.27;7.78;;;;;;;;;;5014412;28;20022;-64
2022/05/06 07:59:34;;;;;;;13.20;8.43;;;;;;;;;;5014535;28;20387;-65
2022/05/06 08:04:48;;;;;;;12.15;7.72;;;;;;;;;;5014490;28;20028;-64
2022/05/06 08:07:15;;;;;;;14.10;7.85;;;;;;;;;;5014055;28;20030;-63
2022/05/06 08:09:41;;;;;;;10.75;7.57;;;;;;;;;;5014208;28;20109;-64
2022/05/06 08:12:07;;;;;;;17.15;8.07;;;;;;;;;;5014178;28;20054;-64
2022/05/06 08:14:33;;;;;;;13.05;7.43;;;;;;;;;;5014005;28;20022;-63
2022/05/06 08:16:59;;;;;;;15.15;7.40;;;;;;;;;;5014110;28;20034;-62
2022/05/06 08:19:25;;;;;;;10.70;7.28;;;;;;;;;;5014236;28;20034;-63
2022/05/06 08:21:51;;;;;;;13.23;7.03;;;;;;;;;;5014114;28;20084;-63
2022/05/06 08:24:17;;;;;;;14.18;8.48;;;;;;;;;;5014030;28;20029;-64
2022/05/06 08:26:43;;;;;;;14.38;8.50;;;;;;;;;;5013945;28;20057;-64
2022/05/06 08:29:08;;;;;;;12.40;7.47;;;;;;;;;;5013694;28;20058;-64
2022/05/06 08:31:37;;;;;;;14.57;7.47;;;;;;;;;;5013969;28;20055;-64
2022/05/06 08:34:08;;;;;;;16.25;7.72;;;;;;;;;;5014007;28;20100;-64
2022/05/06 08:36:36;;;;;;;13.15;7.10;;;;;;;;;;5013812;28;20038;-63
2022/05/06 08:39:03;;;;;;;12.20;7.15;;;;;;;;;;5013826;28;20553;-64
2022/05/06 08:41:29;;;;;;;10.48;6.82;;;;;;;;;;5013911;28;20056;-64
2022/05/06 08:43:54;;;;;;;11.90;8.05;;;;;;;;;;5013498;28;20057;-63
2022/05/06 08:51:52;;;;;;;16.15;6.55;;;;;;;;;;5013816;28;20040;-65
2022/05/06 08:54:18;;;;;;;16.08;7.55;;;;;;;;;;5013605;28;20109;-63
2022/05/06 08:56:43;;;;;;;10.88;6.93;;;;;;;;;;5013520;28;20030;-64
2022/05/06 08:59:09;;;;;;;14.30;7.88;;;;;;;;;;5013302;28;20030;-64
2022/05/06 09:01:35;;;;;;;10.63;6.35;;;;;;;;;;5012929;28;20052;-63
2022/05/06 09:04:00;;;;;;;12.07;6.47;;;;;;;;;;5013411;28;20083;-65
2022/05/06 09:06:29;;;;;;;10.60;6.18;;;;;;;;;;5013140;28;20407;-65
2022/05/06 09:08:58;;;;;;;10.13;5.43;;;;;;;;;;5013225;28;20033;-65
2022/05/06 09:17:22;;;;;;;10.50;5.22;;;;;;;;;;5013278;28;20079;-64
2022/05/06 09:19:48;;;;;;;8.70;5.72;;;;;;;;;;5012704;28;20467;-65
2022/05/06 09:22:14;;;;;;;11.00;5.68;;;;;;;;;;5013254;28;20041;-65
2022/05/06 09:24:47;;;;;;;7.88;4.82;;;;;;;;;;5013045;28;20415;-65
2022/05/06 09:27:23;;;;;;;10.70;5.60;;;;;;;;;;5012580;28;20139;-64
2022/05/06 09:29:50;;;;;;;8.57;4.70;;;;;;;;;;5013087;28;20028;-65
2022/05/06 09:32:16;;;;;;;10.85;5.43;;;;;;;;;;5012840;28;20026;-64
2022/05/06 09:34:42;;;;;;;6.93;4.78;;;;;;;;;;5013081;28;20034;-65
2022/05/06 09:37:08;;;;;;;8.40;5.05;;;;;;;;;;5012859;28;20029;-64
2022/05/06 09:39:38;;;;;;;10.15;4.70;;;;;;;;;;5012819;28;20034;-65
2022/05/06 09:42:05;;;;;;;8.37;4.30;;;;;;;;;;5012484;28;20066;-64
2022/05/06 09:44:32;;;;;;;7.28;4.25;;;;;;;;;;5012831;28;20342;-64
2022/05/06 09:47:11;;;;;;;6.13;3.70;;;;;;;;;;5012641;28;20037;-65
2022/05/06 09:49:44;;;;;;;8.77;4.53;;;;;;;;;;5012872;28;20475;-64
2022/05/06 09:52:14;;;;;;;6.88;4.25;;;;;;;;;;5012880;28;20044;-64
2022/05/06 09:54:41;;;;;;;6.72;3.78;;;;;;;;;;5012988;28;20033;-64
2022/05/06 09:57:09;;;;;;;6.13;4.28;;;;;;;;;;5012608;28;20530;-65
2022/05/06 09:59:36;;;;;;;7.78;4.80;;;;;;;;;;5012717;28;20463;-64
2022/05/06 10:02:04;;;;;;;8.43;4.30;;;;;;;;;;5012391;28;20495;-64
2022/05/06 10:04:29;;;;;;;5.65;4.50;;;;;;;;;;5012840;28;20034;-65
2022/05/06 10:06:58;;;;;;;6.97;3.83;;;;;;;;;;5012668;28;20033;-64
2022/05/06 10:09:26;;;;;;;6.53;4.38;;;;;;;;;;5012667;28;20503;-63
2022/05/06 10:11:54;;;;;;;8.10;3.20;;;;;;;;;;5012453;28;20084;-64
2022/05/06 10:14:20;;;;;;;6.18;3.72;;;;;;;;;;5012601;28;20053;-64
2022/05/06 10:16:47;;;;;;;7.82;4.07;;;;;;;;;;5012486;28;20030;-64
2022/05/06 10:19:38;;;;;;;6.38;4.25;;;;;;;;;;5012769;28;20026;-64
2022/05/06 10:22:04;;;;;;;;;;;;;;;;;;5012992;28;20033;-64
2022/05/06 10:24:49;;;;;;;8.70;3.85;;;;;;;;;;5012410;28;20007;-64
2022/05/06 10:33:15;;;;;;;4.80;3.33;;;;;;;;;;5015980;28;20091;-65
2022/05/06 10:35:42;;;;;;;7.28;3.70;;;;;;;;;;5016082;28;20088;-64
2022/05/06 10:38:18;;;;;;;6.30;4.93;;;;;;;;;;5015881;28;20030;-65
2022/05/06 10:40:56;;;;;;;5.65;3.42;;;;;;;;;;5015749;28;20018;-64
2022/05/06 10:43:40;;;;;;;6.75;3.20;;;;;;;;;;5015911;28;20026;-64
2022/05/06 10:46:07;;;;;;;5.72;3.00;;;;;;;;;;5015833;28;20033;-63
2022/05/06 10:48:33;;;;;;;6.03;3.40;;;;;;;;;;5015939;28;20065;-65
2022/05/06 10:51:21;;;;;;;5.68;3.30;;;;;;;;;;5015736;28;20076;-65
2022/05/06 10:53:47;;;;;;;5.57;3.38;;;;;;;;;;5015702;28;20033;-65
2022/05/06 10:56:14;;;;;;;9.70;3.63;;;;;;;;;;5015483;28;20440;-65
2022/05/06 10:58:40;;;;;;;6.35;3.85;;;;;;;;;;5015809;28;20048;-64
2022/05/06 11:01:06;;;;;;;5.65;3.90;;;;;;;;;;5015583;28;20049;-64
2022/05/06 11:03:31;;;;;;;5.20;3.45;;;;;;;;;;5015445;28;20030;-64
2022/05/06 11:05:57;;;;;;;5.35;3.05;;;;;;;;;;5015650;28;20022;-63
2022/05/06 11:08:34;;;;;;;4.97;2.83;;;;;;;;;;5015359;28;20180;-64
2022/05/06 11:11:01;;;;;;;4.82;2.83;;;;;;;;;;5015469;28;20454;-65
2022/05/06 11:13:26;;;;;;;7.25;2.70;;;;;;;;;;5015403;28;20109;-63
2022/05/06 11:15:52;;;;;;;4.15;2.75;;;;;;;;;;5015450;28;20428;-64
2022/05/06 11:18:19;;;;;;;7.10;3.22;;;;;;;;;;5015425;28;20065;-63
2022/05/06 11:20:45;;;;;;;5.82;2.90;;;;;;;;;;5015367;28;20058;-64
2022/05/06 11:23:13;;;;;;;9.15;3.10;;;;;;;;;;5014737;28;20018;-64
2022/05/06 11:25:43;;;;;;;7.45;3.10;;;;;;;;;;5015230;28;20100;-65
2022/05/06 11:28:12;;;;;;;;;;;;;;;;;;5015534;28;20401;-63
2022/05/06 11:30:37;;;;;;;4.97;2.50;;;;;;;;;;5015333;28;19952;-63
2022/05/06 11:33:04;;;;;;;7.30;2.50;;;;;;;;;;5015063;28;20072;-64
2022/05/06 11:35:40;;;;;;;6.50;2.85;;;;;;;;;;5015025;28;20081;-64
2022/05/06 11:38:05;;;;;;;5.40;2.67;;;;;;;;;;5014644;28;20120;-63
2022/05/06 11:40:33;;;;;;;3.03;2.05;;;;;;;;;;5014872;28;20105;-63
2022/05/06 11:43:00;;;;;;;4.13;2.40;;;;;;;;;;5014360;28;20113;-64
2022/05/06 11:48:11;;;;;;;3.70;1.90;;;;;;;;;;5014782;28;20438;-65
2022/05/06 11:50:39;;;;;;;3.92;2.10;;;;;;;;;;5014918;28;20026;-65
2022/05/06 11:53:08;;;;;;;3.83;1.75;;;;;;;;;;5014473;28;20037;-64
2022/05/06 11:55:35;;;;;;;3.35;1.58;;;;;;;;;;5014771;28;20026;-65
2022/05/06 11:58:05;;;;;;;4.93;1.35;;;;;;;;;;5014579;28;20037;-64
2022/05/06 12:00:31;;;;;;;3.45;1.90;;;;;;;;;;5014328;28;20115;-65
2022/05/06 12:03:02;;;;;;;5.07;1.60;;;;;;;;;;5014211;28;20034;-62
2022/05/06 12:05:27;;;;;;;4.03;1.70;;;;;;;;;;5014363;28;20029;-63
2022/05/06 12:07:53;;;;;;;4.65;1.70;;;;;;;;;;5014167;28;20435;-64
2022/05/06 12:10:26;;;;;;;4.97;2.08;;;;;;;;;;5014322;28;20022;-65
2022/05/06 12:12:57;;;;;;;6.60;1.85;;;;;;;;;;5014181;28;20030;-63
2022/05/06 12:15:41;;;;;;;4.88;2.10;;;;;;;;;;5014297;28;20033;-63
2022/05/06 12:18:11;;;;;;;4.18;2.30;;;;;;;;;;5014155;28;20074;-64
2022/05/06 12:20:38;;;;;;;;;;;;;;;;;;5014832;28;20392;-63
2022/05/06 12:23:08;;;;;;;4.03;2.00;;;;;;;;;;5013902;28;20375;-63
2022/05/06 12:25:35;;;;;;;5.72;2.65;;;;;;;;;;5014154;28;20034;-64
2022/05/06 12:28:04;;;;;;;2.90;1.80;;;;;;;;;;5013862;28;20040;-65
2022/05/06 12:30:30;;;;;;;8.80;2.10;;;;;;;;;;5014016;28;20025;-65
2022/05/06 12:33:03;;;;;;;4.80;2.10;;;;;;;;;;5013903;28;20537;-64
2022/05/06 12:35:29;;;;;;;4.85;2.10;;;;;;;;;;5013649;28;20030;-63
2022/05/06 12:37:56;;;;;;;4.70;2.10;;;;;;;;;;5013876;28;20036;-64
2022/05/06 12:40:32;;;;;;;4.88;1.98;;;;;;;;;;5013806;28;20050;-66
2022/05/06 12:43:05;;;;;;;3.03;1.75;;;;;;;;;;5013684;28;20032;-65
2022/05/06 12:45:30;;;;;;;3.38;1.58;;;;;;;;;;5013701;28;20084;-63
2022/05/06 12:50:40;;;;;;;4.70;1.90;;;;;;;;;;5013475;28;20080;-62
2022/05/06 12:53:06;;;;;;;8.27;1.80;;;;;;;;;;5013581;28;20026;-65
2022/05/06 12:55:33;;;;;;;3.08;1.42;;;;;;;;;;5012721;28;20486;-65
2022/05/06 12:57:58;;;;;;;3.53;1.63;;;;;;;;;;5013567;28;20041;-63
2022/05/06 13:00:24;;;;;;;3.00;1.60;;;;;;;;;;5013271;28;20455;-64
2022/05/06 13:02:50;;;;;;;3.83;1.30;;;;;;;;;;5013280;28;20040;-63
2022/05/06 13:05:15;;;;;;;3.40;1.55;;;;;;;;;;5013397;28;20030;-65
2022/05/06 13:07:41;;;;;;;2.47;1.50;;;;;;;;;;5013204;28;20025;-62
2022/05/06 13:10:07;;;;;;;3.97;1.40;;;;;;;;;;5013393;28;20101;-63
2022/05/06 13:12:32;;;;;;;4.28;1.50;;;;;;;;;;5013374;28;20534;-63
2022/05/06 13:14:57;;;;;;;4.18;1.52;;;;;;;;;;5013362;28;20481;-62
2022/05/06 13:17:23;;;;;;;4.72;1.33;;;;;;;;;;5013227;28;20029;-64
2022/05/06 13:19:49;;;;;;;3.10;1.40;;;;;;;;;;5012896;28;20062;-64
2022/05/06 13:22:14;;;;;;;2.08;1.20;;;;;;;;;;5013182;28;20026;-63
2022/05/06 13:24:40;;;;;;;3.05;1.35;;;;;;;;;;5013213;28;20379;-63
2022/05/06 13:27:05;;;;;;;4.10;1.20;;;;;;;;;;5012912;28;20029;-63
2022/05/06 13:29:31;;;;;;;3.00;1.10;;;;;;;;;;5013271;28;20018;-64
2022/05/06 13:31:57;;;;;;;3.38;1.30;;;;;;;;;;5013013;28;20423;-66
2022/05/06 13:34:23;;;;;;;6.88;1.45;;;;;;;;;;5011511;28;20064;-65
2022/05/06 13:36:48;;;;;;;3.92;1.33;;;;;;;;;;5013025;28;20018;-62
2022/05/06 13:39:14;;;;;;;2.95;1.40;;;;;;;;;;5012954;28;20527;-64
2022/05/06 13:41:41;;;;;;;5.47;1.30;;;;;;;;;;5012843;28;20034;-64
2022/05/06 13:44:07;;;;;;;2.80;1.40;;;;;;;;;;5012805;28;20021;-62
2022/05/06 13:46:32;;;;;;;6.63;1.30;;;;;;;;;;5012896;28;20026;-64
2022/05/06 13:48:58;;;;;;;5.65;1.42;;;;;;;;;;5012655;28;20407;-64
2022/05/06 13:51:23;;;;;;;3.33;1.02;;;;;;;;;;5012866;28;20379;-62
2022/05/06 13:53:49;;;;;;;3.88;1.40;;;;;;;;;;5012760;28;20034;-64
2022/05/06 13:59:04;;;;;;;3.72;1.42;;;;;;;;;;5012954;28;20527;-63
2022/05/06 14:01:30;;;;;;;3.20;1.30;;;;;;;;;;5012403;28;20072;-62
2022/05/06 14:03:56;;;;;;;4.35;1.30;;;;;;;;;;5012530;28;20418;-63
2022/05/06 14:06:22;;;;;;;1.63;1.00;;;;;;;;;;5014537;28;20124;-62
2022/05/06 14:08:48;;;;;;;3.08;1.27;;;;;;;;;;5016429;28;20113;-63
2022/05/06 14:11:13;;;;;;;1.50;1.00;;;;;;;;;;5016553;28;20460;-63
2022/05/06 14:13:39;;;;;;;7.95;1.23;;;;;;;;;;5016400;28;20157;-62
2022/05/06 14:16:07;;;;;;;5.10;1.10;;;;;;;;;;5016572;28;20040;-64
2022/05/06 14:18:32;;;;;;;5.80;1.08;;;;;;;;;;5016070;28;20034;-62
2022/05/06 14:20:58;;;;;;;4.38;1.13;;;;;;;;;;5016225;28;20037;-64
2022/05/06 14:23:24;;;;;;;7.40;1.50;;;;;;;;;;5016202;28;20349;-65
2022/05/06 14:25:51;;;;;;;5.03;1.55;;;;;;;;;;5016110;28;20030;-65
2022/05/06 14:28:16;;;;;;;3.63;1.23;;;;;;;;;;5016047;28;20352;-62
2022/05/06 14:30:43;;;;;;;5.45;1.45;;;;;;;;;;5016225;28;20026;-63
2022/05/06 14:33:09;;;;;;;1.80;1.08;;;;;;;;;;5015999;28;20104;-63
2022/05/06 14:35:36;;;;;;;2.88;1.30;;;;;;;;;;5016165;28;20025;-62
2022/05/06 14:38:03;;;;;;;5.07;1.13;;;;;;;;;;5016083;28;20084;-62
2022/05/06 14:40:29;;;;;;;6.68;1.38;;;;;;;;;;5015922;28;20037;-62
2022/05/06 14:42:55;;;;;;;1.85;0.82;;;;;;;;;;5016201;28;20033;-64
2022/05/06 14:45:21;;;;;;;2.33;1.10;;;;;;;;;;5016316;28;20396;-62
2022/05/06 14:47:47;;;;;;;5.18;1.40;;;;;;;;;;5015707;28;20032;-62
2022/05/06 14:50:13;;;;;;;1.30;0.80;;;;;;;;;;5014626;28;20459;-62
2022/05/06 14:52:38;;;;;;;1.35;0.85;;;;;;;;;;5015961;28;20026;-62
2022/05/06 14:55:05;;;;;;;3.30;1.50;;;;;;;;;;5015689;28;20025;-63
2022/05/06 14:57:31;;;;;;;2.30;1.17;;;;;;;;;;5015664;28;20434;-62
2022/05/06 14:59:57;;;;;;;3.85;1.20;;;;;;;;;;5015654;28;20073;-64
2022/05/06 15:02:22;;;;;;;3.28;1.27;;;;;;;;;;5015218;28;20517;-63
2022/05/06 15:04:48;;;;;;;2.92;1.33;;;;;;;;;;5015709;28;20355;-62
2022/05/06 15:07:13;;;;;;;1.88;1.00;;;;;;;;;;5015445;28;20030;-62
2022/05/06 15:09:39;;;;;;;2.88;0.95;;;;;;;;;;5015492;28;20037;-63
2022/05/06 15:12:04;;;;;;;1.80;1.20;;;;;;;;;;5015754;28;20080;-62
2022/05/06 15:14:33;;;;;;;2.53;1.13;;;;;;;;;;5015565;28;20080;-64
2022/05/06 15:17:05;;;;;;;4.57;0.98;;;;;;;;;;5014585;28;20121;-63
2022/05/06 15:19:34;;;;;;;1.98;1.15;;;;;;;;;;5015165;28;20030;-63
2022/05/06 15:22:01;;;;;;;1.85;1.10;;;;;;;;;;5015225;28;20026;-63